Tuesday, May 31, 2016
21:53 UTC
  |  Log In   |  Register Free
Airport Search:

Hobart Regional Airport
(KHBR)

Hobart Regional Airport Diagram
No Airport Diagram Available

FAA data valid effective May 26 2016 - Jul 21 2016 (unless otherwise noted).

 
 
 
 
 
 
 
 
 
 
 
 
 
 
Current Aviation Weather for KHBR

Weather Summary


The most recent METAR observation for HBR was updated at: 12:53 UTC
METAR for KHBR is not available. Closest METAR is for KCSM
KHBR  (most recent observation was updatred at 31:20 UTC)
312053Z AUTO 07008KT 10SM -RA CLR 29/16 A2987 RMK AO2 SLP096 P0000 60000 T02890161 56013

KCSM  (22.2 nm SE)   (most recent observation was updated at 31:20 UTC)
312053Z 02012KT 10SM CLR 27/15 A2990 RMK AO2 SLP100 T02720150 58011

KAXS  (22.5 nm NE)   (most recent observation was updated at 31:21 UTC)
312135Z AUTO 09019KT 10SM TS CLR 29/18 A2987 RMK AO2 LTG DSNT SE T02880182

TAF for KHBR is not available.
KHBR
311752Z 3118/0118 03008KT P6SM SCT040 BKN150 FM312100 09008KT P6SM OVC035 PROB30 0103/0107 4SM -TSRA OVC025CB FM010700 03006KT P6SM BKN040 PROB30 0107/0112 4SM -TSRA OVC025CB

KCSM  (22.2 nm SE)   (most recent observation was updatred at 31:17 UTC)
311752Z 3118/0118 03008KT P6SM SCT040 BKN150 FM312100 05008KT P6SM OVC035 PROB30 0103/0107 4SM -TSRA OVC025CB FM010700 03006KT P6SM BKN040 PROB30 0107/0112 4SM -TSRA OVC025CB


KLTS  (23.1 nm NE)   (most recent observation was updatred at 31:20 UTC)
AMD 312020Z 3120/0123 11012KT 4800 -SHRA BKN050 OVC150 QNH2980INS TEMPO 3121/0101 11035G45KT 1600 -TSRAGR BKN040CB BECMG 0102/0103 12010KT 4800 -SHRA BKN040 QNH2985INS BECMG 0105/0106 VRB06KT 4800 -SHRA BKN030 QNH2988INS BECMG 0115/0116 03012KT 9999 NSW OVC020 QNH2991INS BECMG 0119/0120 08012G18KT 4800 -SHRA OVC015 QNH2990INS TEMPO 0120/0123 09015G25KT 3200 -TSRA OVC015CB TX32/3121Z TN16/0112Z AMD 312020
GlobalAir.com is loading additional information.
 Current Weather at HBR
84.0 F° (28.9 C°)

North winds at 13.8 mph
Pressure:
29.89 in
Humidity:
48%
Wind:
North at 13.8 mph
Dew Point:
62.1 F° (16.7 C°)
Visibility:
10.00 mi
HBR NOAA Radar




Find All Airport Services Find A Hotel Find A Rental Car Find A Golf Course Find A Restaurant $100 Hamburger



Airport Weather Forecast for KHBR

Translated METAR for KHBR (2053 UTC)
METAR:
KHBR 312053Z AUTO 07008KT 10SM -RA CLR 29/16 A2987 RMK AO2 SLP096 P0000 60000 T02890161 56013
Conditions at:
KHBR (Hobart Rgnl, OK) observed 2053 UTC 31 May 2016
Temperature:
29°C (84.2°F)
Dewpoint:
16°C (60.8°F) [RH = 45.4]
Pressure:
29.87 inches Hg (1011.5 mb)
pressure at sea level is 96 in Hg
Winds:
from the ENE (070 degrees) at 9.2 mph (8 knots: 4.1 m/s)
Visibility:
10 mile(s)
Ceiling:
at least 12,000 feet AGL
Clouds:
Clear below 12,000 feet AGL
Remarks:
site is un-manned
site is automated and HAS a precipitation sensor

FBO's on the Field
FBO Company Facility Photos Services Transportation Aviation Fuel Prices: Prices include tax
Catering Weather Repair Courtesy Rental Type 100LL JetA JetA+ MOGAS 8087
 
City of Hobart

Currently rated 5 by 1 person
FS:Phillips 66
Last Updated: May-26
Login to update fuel prices
SS:
Contact City of HobartMore FBO Information
 
Add another FBO Facility Photos Catering Weather Repair Courtesy Rental Type 100LL JetA JetA+ MOGAS 8087
Services Transportation Aviation Fuel Prices: Prices include tax


model-print
model-print
model-print
model-print